ARG1789 SACO-SABE
Flight info
| Callsign | ARG1789 |
|---|---|
| Flight time | 1h 2m |
| Altitude | FL350 |
| Route | UTRAX W24 SNT SNT9R |
| Aircraft | B38M/M-SDE2E3FGHIRWXY/LB1 |
Departure
| Time | 2026-05-03 23:37 |
|---|---|
| Airport | Ingeniero Aeronáutico Ambrosio L.V. Taravella International Airport (SACO) |
Arrival
| Time | 2026-05-04 00:40 |
|---|---|
| Airport | Aeroparque Jorge Newbery (SABE) |
| Time | Latitude | Longitude | Altitude | Speed | Heading |
|---|---|---|---|---|---|
| 2026-05-03 23:04 | -31.31486 | -64.21179 | 1615 ft | 0 kts | 261° |
| 2026-05-03 23:29 | -31.31483 | -64.21156 | 1622 ft | 4 kts | 259° |
| 2026-05-03 23:29 | -31.31477 | -64.21125 | 1620 ft | 4 kts | 255° |
| 2026-05-03 23:30 | -31.31469 | -64.21095 | 1620 ft | 4 kts | 248° |
| 2026-05-03 23:30 | -31.31456 | -64.21068 | 1621 ft | 4 kts | 228° |
| 2026-05-03 23:30 | -31.31447 | -64.21058 | 1618 ft | 0 kts | 214° |
| 2026-05-03 23:33 | -31.31448 | -64.21058 | 1618 ft | 0 kts | 214° |
| 2026-05-03 23:33 | -31.31468 | -64.21070 | 1617 ft | 8 kts | 199° |
| 2026-05-03 23:33 | -31.31552 | -64.21089 | 1620 ft | 15 kts | 197° |
| 2026-05-03 23:34 | -31.31656 | -64.21099 | 1619 ft | 16 kts | 180° |
| 2026-05-03 23:34 | -31.31756 | -64.21059 | 1623 ft | 17 kts | 141° |
| 2026-05-03 23:34 | -31.31871 | -64.21028 | 1620 ft | 18 kts | 179° |
| 2026-05-03 23:34 | -31.32004 | -64.21027 | 1620 ft | 20 kts | 181° |
| 2026-05-03 23:35 | -31.32152 | -64.21022 | 1622 ft | 22 kts | 179° |
| 2026-05-03 23:35 | -31.32300 | -64.21020 | 1623 ft | 20 kts | 179° |
| 2026-05-03 23:35 | -31.32421 | -64.20989 | 1621 ft | 17 kts | 127° |
| 2026-05-03 23:35 | -31.32416 | -64.20849 | 1620 ft | 20 kts | 50° |
| 2026-05-03 23:36 | -31.32315 | -64.20744 | 1618 ft | 16 kts | 44° |
| 2026-05-03 23:36 | -31.32298 | -64.20725 | 1618 ft | 0 kts | 44° |
| 2026-05-03 23:37 | -31.32191 | -64.20605 | 1615 ft | 57 kts | 44° |
| 2026-05-03 23:37 | -31.31734 | -64.20089 | 1617 ft | 124 kts | 44° |
| 2026-05-03 23:37 | -31.30725 | -64.18942 | 1942 ft | 163 kts | 44° |
| 2026-05-03 23:37 | -31.29916 | -64.17984 | 2576 ft | 166 kts | 44° |
| 2026-05-03 23:38 | -31.29079 | -64.16966 | 3111 ft | 183 kts | 44° |
| 2026-05-03 23:38 | -31.28226 | -64.15898 | 3958 ft | 179 kts | 44° |
| 2026-05-03 23:38 | -31.27368 | -64.14797 | 4553 ft | 192 kts | 44° |
| 2026-05-03 23:38 | -31.26417 | -64.13573 | 4959 ft | 216 kts | 44° |
| 2026-05-03 23:39 | -31.25365 | -64.12235 | 5564 ft | 234 kts | 44° |
| 2026-05-03 23:39 | -31.24208 | -64.10782 | 6063 ft | 256 kts | 44° |
| 2026-05-03 23:39 | -31.22960 | -64.09222 | 6677 ft | 270 kts | 44° |
| 2026-05-03 23:39 | -31.21673 | -64.07616 | 7631 ft | 264 kts | 45° |
| 2026-05-03 23:40 | -31.20443 | -64.06040 | 8542 ft | 273 kts | 45° |
| 2026-05-03 23:40 | -31.19122 | -64.04363 | 9104 ft | 288 kts | 45° |
| 2026-05-03 23:40 | -31.17729 | -64.02617 | 9760 ft | 300 kts | 45° |
| 2026-05-03 23:40 | -31.16289 | -64.00826 | 10514 ft | 305 kts | 45° |
| 2026-05-03 23:41 | -31.14829 | -63.99001 | 11244 ft | 311 kts | 45° |
| 2026-05-03 23:41 | -31.13347 | -63.97139 | 11986 ft | 317 kts | 45° |
| 2026-05-03 23:41 | -31.11820 | -63.95214 | 12470 ft | 333 kts | 45° |
| 2026-05-03 23:41 | -31.10278 | -63.93103 | 12814 ft | 353 kts | 57° |
| 2026-05-03 23:42 | -31.09478 | -63.90377 | 13409 ft | 361 kts | 85° |
| 2026-05-03 23:42 | -31.09753 | -63.87473 | 14009 ft | 366 kts | 112° |
| 2026-05-03 23:42 | -31.11064 | -63.84985 | 14655 ft | 362 kts | 138° |
| 2026-05-03 23:42 | -31.12956 | -63.83046 | 15249 ft | 366 kts | 142° |
| 2026-05-03 23:43 | -31.14860 | -63.81063 | 15926 ft | 369 kts | 142° |
| 2026-05-03 23:43 | -31.16776 | -63.79057 | 16583 ft | 373 kts | 142° |
| 2026-05-03 23:43 | -31.18711 | -63.77029 | 17237 ft | 376 kts | 142° |
| 2026-05-03 23:43 | -31.20660 | -63.74983 | 17880 ft | 380 kts | 142° |
| 2026-05-03 23:44 | -31.22630 | -63.72915 | 18484 ft | 383 kts | 142° |
| 2026-05-03 23:44 | -31.24615 | -63.70828 | 19019 ft | 387 kts | 142° |
| 2026-05-03 23:44 | -31.26621 | -63.68720 | 19562 ft | 390 kts | 142° |
| 2026-05-03 23:44 | -31.28638 | -63.66598 | 20112 ft | 393 kts | 142° |
| 2026-05-03 23:45 | -31.30676 | -63.64452 | 20659 ft | 396 kts | 143° |
| 2026-05-03 23:45 | -31.32727 | -63.62293 | 21178 ft | 400 kts | 143° |
| 2026-05-03 23:45 | -31.34800 | -63.60108 | 21697 ft | 403 kts | 143° |
| 2026-05-03 23:45 | -31.36888 | -63.57905 | 22213 ft | 407 kts | 143° |
| 2026-05-03 23:46 | -31.38994 | -63.55683 | 22717 ft | 410 kts | 143° |
| 2026-05-03 23:46 | -31.41116 | -63.53443 | 23233 ft | 414 kts | 143° |
| 2026-05-03 23:46 | -31.43256 | -63.51181 | 23708 ft | 417 kts | 143° |
| 2026-05-03 23:46 | -31.45410 | -63.48904 | 24131 ft | 420 kts | 143° |
| 2026-05-03 23:47 | -31.47581 | -63.46607 | 24570 ft | 422 kts | 143° |
| 2026-05-03 23:47 | -31.49762 | -63.44299 | 24988 ft | 425 kts | 143° |
| 2026-05-03 23:47 | -31.51960 | -63.41970 | 25407 ft | 428 kts | 143° |
| 2026-05-03 23:47 | -31.54168 | -63.39629 | 25822 ft | 430 kts | 143° |
| 2026-05-03 23:48 | -31.56393 | -63.37269 | 26225 ft | 433 kts | 143° |
| 2026-05-03 23:48 | -31.58626 | -63.34899 | 26624 ft | 436 kts | 143° |
| 2026-05-03 23:48 | -31.60876 | -63.32508 | 27015 ft | 438 kts | 143° |
| 2026-05-03 23:48 | -31.63135 | -63.30107 | 27411 ft | 441 kts | 143° |
| 2026-05-03 23:49 | -31.65409 | -63.27689 | 27785 ft | 443 kts | 143° |
| 2026-05-03 23:49 | -31.67693 | -63.25258 | 28175 ft | 446 kts | 143° |
| 2026-05-03 23:49 | -31.69995 | -63.22805 | 28554 ft | 448 kts | 143° |
| 2026-05-03 23:49 | -31.72303 | -63.20345 | 28916 ft | 451 kts | 143° |
| 2026-05-03 23:50 | -31.74629 | -63.17864 | 29277 ft | 454 kts | 144° |
| 2026-05-03 23:50 | -31.76185 | -63.16205 | 29515 ft | 455 kts | 144° |
| 2026-05-03 23:50 | -31.79316 | -63.12860 | 29984 ft | 458 kts | 144° |
| 2026-05-03 23:50 | -31.81675 | -63.10339 | 30287 ft | 461 kts | 144° |
| 2026-05-03 23:51 | -31.84050 | -63.07798 | 30584 ft | 463 kts | 144° |
| 2026-05-03 23:51 | -31.86435 | -63.05245 | 30863 ft | 466 kts | 144° |
| 2026-05-03 23:51 | -31.88832 | -63.02676 | 31141 ft | 468 kts | 144° |
| 2026-05-03 23:51 | -31.91241 | -63.00095 | 31426 ft | 471 kts | 144° |
| 2026-05-03 23:52 | -31.93661 | -62.97498 | 31703 ft | 473 kts | 144° |
| 2026-05-03 23:52 | -31.96093 | -62.94887 | 31976 ft | 476 kts | 144° |
| 2026-05-03 23:52 | -31.98538 | -62.92260 | 32249 ft | 478 kts | 144° |
| 2026-05-03 23:52 | -32.00991 | -62.89622 | 32518 ft | 480 kts | 144° |
| 2026-05-03 23:53 | -32.03461 | -62.86964 | 32792 ft | 482 kts | 144° |
| 2026-05-03 23:53 | -32.05931 | -62.84305 | 33136 ft | 482 kts | 144° |
| 2026-05-03 23:53 | -32.08405 | -62.81638 | 33501 ft | 482 kts | 144° |
| 2026-05-03 23:53 | -32.10873 | -62.78976 | 33872 ft | 482 kts | 144° |
| 2026-05-03 23:54 | -32.13339 | -62.76315 | 34220 ft | 481 kts | 144° |
| 2026-05-03 23:54 | -32.15803 | -62.73654 | 34516 ft | 481 kts | 144° |
| 2026-05-03 23:54 | -32.18263 | -62.70994 | 34823 ft | 481 kts | 144° |
| 2026-05-03 23:54 | -32.20725 | -62.68331 | 35015 ft | 482 kts | 144° |
| 2026-05-03 23:55 | -32.25638 | -62.63009 | 35024 ft | 478 kts | 144° |
| 2026-05-03 23:55 | -32.30528 | -62.57704 | 35018 ft | 478 kts | 144° |
| 2026-05-03 23:56 | -32.35413 | -62.52397 | 35019 ft | 478 kts | 144° |
| 2026-05-03 23:56 | -32.40300 | -62.47080 | 35019 ft | 478 kts | 144° |
| 2026-05-03 23:57 | -32.45181 | -62.41760 | 35019 ft | 478 kts | 144° |
| 2026-05-03 23:57 | -32.50058 | -62.36437 | 35018 ft | 478 kts | 144° |
| 2026-05-03 23:58 | -32.54934 | -62.31107 | 35016 ft | 478 kts | 144° |
| 2026-05-03 23:58 | -32.59805 | -62.25774 | 35021 ft | 478 kts | 144° |
| 2026-05-03 23:59 | -32.64673 | -62.20436 | 35021 ft | 478 kts | 144° |
| 2026-05-03 23:59 | -32.69354 | -62.14830 | 35007 ft | 488 kts | 131° |
| 2026-05-04 00:00 | -32.73229 | -62.08201 | 35013 ft | 490 kts | 131° |
| 2026-05-04 00:00 | -32.77121 | -62.01562 | 35023 ft | 491 kts | 131° |
| 2026-05-04 00:01 | -32.80999 | -61.94913 | 35024 ft | 491 kts | 131° |
| 2026-05-04 00:01 | -32.84873 | -61.88258 | 35023 ft | 490 kts | 131° |
| 2026-05-04 00:02 | -32.88742 | -61.81600 | 35031 ft | 490 kts | 131° |
| 2026-05-04 00:02 | -32.92611 | -61.74931 | 35037 ft | 490 kts | 131° |
| 2026-05-04 00:03 | -32.96474 | -61.68260 | 35034 ft | 490 kts | 131° |
| 2026-05-04 00:03 | -33.00329 | -61.61590 | 35030 ft | 490 kts | 131° |
| 2026-05-04 00:04 | -33.04184 | -61.54909 | 35028 ft | 490 kts | 131° |
| 2026-05-04 00:04 | -33.08032 | -61.48228 | 35035 ft | 490 kts | 131° |
| 2026-05-04 00:05 | -33.11874 | -61.41545 | 35032 ft | 490 kts | 131° |
| 2026-05-04 00:05 | -33.15715 | -61.34852 | 35032 ft | 490 kts | 131° |
| 2026-05-04 00:06 | -33.19551 | -61.28156 | 35040 ft | 490 kts | 131° |
| 2026-05-04 00:06 | -33.23379 | -61.21450 | 35041 ft | 490 kts | 131° |
| 2026-05-04 00:07 | -33.27202 | -61.14735 | 35037 ft | 490 kts | 131° |
| 2026-05-04 00:07 | -33.31018 | -61.08018 | 35043 ft | 490 kts | 131° |
| 2026-05-04 00:08 | -33.34834 | -61.01290 | 35040 ft | 490 kts | 130° |
| 2026-05-04 00:08 | -33.38631 | -60.94546 | 35040 ft | 490 kts | 130° |
| 2026-05-04 00:09 | -33.42426 | -60.87791 | 35042 ft | 490 kts | 130° |
| 2026-05-04 00:09 | -33.46218 | -60.81031 | 35043 ft | 490 kts | 130° |
| 2026-05-04 00:10 | -33.50002 | -60.74271 | 35045 ft | 490 kts | 130° |
| 2026-05-04 00:10 | -33.51877 | -60.70915 | 35018 ft | 478 kts | 130° |
| 2026-05-04 00:10 | -33.53708 | -60.67637 | 34642 ft | 472 kts | 130° |
| 2026-05-04 00:11 | -33.55529 | -60.64374 | 34060 ft | 472 kts | 130° |
| 2026-05-04 00:11 | -33.57347 | -60.61114 | 33449 ft | 471 kts | 130° |
| 2026-05-04 00:11 | -33.59155 | -60.57867 | 32951 ft | 467 kts | 130° |
| 2026-05-04 00:11 | -33.60946 | -60.54651 | 32496 ft | 463 kts | 130° |
| 2026-05-04 00:12 | -33.62722 | -60.51456 | 32013 ft | 460 kts | 130° |
| 2026-05-04 00:12 | -33.64486 | -60.48280 | 31528 ft | 457 kts | 129° |
| 2026-05-04 00:12 | -33.66238 | -60.45125 | 31059 ft | 454 kts | 129° |
| 2026-05-04 00:12 | -33.67980 | -60.41983 | 30580 ft | 452 kts | 129° |
| 2026-05-04 00:13 | -33.69714 | -60.38854 | 30105 ft | 450 kts | 129° |
| 2026-05-04 00:13 | -33.71438 | -60.35741 | 29560 ft | 448 kts | 129° |
| 2026-05-04 00:13 | -33.73152 | -60.32644 | 29078 ft | 444 kts | 129° |
| 2026-05-04 00:13 | -33.74850 | -60.29572 | 28622 ft | 441 kts | 129° |
| 2026-05-04 00:14 | -33.76535 | -60.26519 | 28169 ft | 438 kts | 129° |
| 2026-05-04 00:14 | -33.78210 | -60.23485 | 27711 ft | 435 kts | 129° |
| 2026-05-04 00:14 | -33.79874 | -60.20467 | 27242 ft | 433 kts | 129° |
| 2026-05-04 00:14 | -33.81527 | -60.17467 | 26809 ft | 430 kts | 129° |
| 2026-05-04 00:15 | -33.83174 | -60.14478 | 26365 ft | 428 kts | 129° |
| 2026-05-04 00:15 | -33.84830 | -60.11512 | 25850 ft | 428 kts | 129° |
| 2026-05-04 00:15 | -33.86491 | -60.08550 | 25426 ft | 427 kts | 129° |
| 2026-05-04 00:15 | -33.88139 | -60.05605 | 25018 ft | 425 kts | 129° |
| 2026-05-04 00:16 | -33.89781 | -60.02667 | 24595 ft | 423 kts | 129° |
| 2026-05-04 00:16 | -33.91419 | -59.99736 | 24178 ft | 422 kts | 129° |
| 2026-05-04 00:16 | -33.93051 | -59.96810 | 23755 ft | 421 kts | 129° |
| 2026-05-04 00:16 | -33.94681 | -59.93889 | 23281 ft | 421 kts | 129° |
| 2026-05-04 00:17 | -33.96302 | -59.90978 | 22845 ft | 418 kts | 129° |
| 2026-05-04 00:17 | -33.97915 | -59.88081 | 22437 ft | 415 kts | 129° |
| 2026-05-04 00:17 | -33.99515 | -59.85205 | 22038 ft | 412 kts | 128° |
| 2026-05-04 00:17 | -34.01101 | -59.82351 | 21648 ft | 410 kts | 128° |
| 2026-05-04 00:18 | -34.02677 | -59.79515 | 21264 ft | 407 kts | 128° |
| 2026-05-04 00:18 | -34.04242 | -59.76694 | 20878 ft | 404 kts | 128° |
| 2026-05-04 00:18 | -34.05796 | -59.73891 | 20503 ft | 402 kts | 128° |
| 2026-05-04 00:18 | -34.07339 | -59.71107 | 20128 ft | 399 kts | 128° |
| 2026-05-04 00:19 | -34.08874 | -59.68335 | 19754 ft | 397 kts | 128° |
| 2026-05-04 00:19 | -34.10399 | -59.65579 | 19382 ft | 394 kts | 128° |
| 2026-05-04 00:19 | -34.11914 | -59.62839 | 19023 ft | 392 kts | 128° |
| 2026-05-04 00:19 | -34.13418 | -59.60116 | 18656 ft | 390 kts | 128° |
| 2026-05-04 00:20 | -34.14915 | -59.57405 | 18300 ft | 388 kts | 127° |
| 2026-05-04 00:20 | -34.16401 | -59.54710 | 17880 ft | 385 kts | 127° |
| 2026-05-04 00:20 | -34.17873 | -59.52039 | 17517 ft | 377 kts | 127° |
| 2026-05-04 00:20 | -34.19296 | -59.49456 | 17181 ft | 364 kts | 127° |
| 2026-05-04 00:21 | -34.20672 | -59.46958 | 16849 ft | 352 kts | 127° |
| 2026-05-04 00:21 | -34.21999 | -59.44538 | 16525 ft | 341 kts | 127° |
| 2026-05-04 00:21 | -34.23261 | -59.42140 | 16165 ft | 338 kts | 126° |
| 2026-05-04 00:21 | -34.24535 | -59.39719 | 15834 ft | 345 kts | 126° |
| 2026-05-04 00:22 | -34.25832 | -59.37259 | 15519 ft | 349 kts | 126° |
| 2026-05-04 00:22 | -34.27132 | -59.34793 | 15206 ft | 348 kts | 126° |
| 2026-05-04 00:22 | -34.28427 | -59.32333 | 14896 ft | 346 kts | 126° |
| 2026-05-04 00:22 | -34.29713 | -59.29890 | 14572 ft | 345 kts | 126° |
| 2026-05-04 00:23 | -34.30994 | -59.27454 | 14254 ft | 343 kts | 125° |
| 2026-05-04 00:23 | -34.32264 | -59.25038 | 13936 ft | 341 kts | 125° |
| 2026-05-04 00:23 | -34.33530 | -59.22630 | 13590 ft | 339 kts | 125° |
| 2026-05-04 00:23 | -34.34787 | -59.20236 | 13256 ft | 337 kts | 125° |
| 2026-05-04 00:24 | -34.36041 | -59.17846 | 12943 ft | 337 kts | 125° |
| 2026-05-04 00:24 | -34.37289 | -59.15465 | 12626 ft | 334 kts | 125° |
| 2026-05-04 00:24 | -34.38525 | -59.13107 | 12314 ft | 331 kts | 124° |
| 2026-05-04 00:24 | -34.39751 | -59.10765 | 12006 ft | 328 kts | 124° |
| 2026-05-04 00:25 | -34.40965 | -59.08446 | 11700 ft | 326 kts | 124° |
| 2026-05-04 00:25 | -34.42169 | -59.06143 | 11403 ft | 323 kts | 124° |
| 2026-05-04 00:25 | -34.43363 | -59.03860 | 11098 ft | 321 kts | 124° |
| 2026-05-04 00:25 | -34.44551 | -59.01586 | 10802 ft | 318 kts | 124° |
| 2026-05-04 00:26 | -34.45726 | -58.99334 | 10512 ft | 316 kts | 124° |
| 2026-05-04 00:26 | -34.46882 | -58.97118 | 10376 ft | 307 kts | 124° |
| 2026-05-04 00:26 | -34.48006 | -58.94963 | 10244 ft | 299 kts | 124° |
| 2026-05-04 00:26 | -34.49099 | -58.92864 | 10086 ft | 292 kts | 123° |
| 2026-05-04 00:27 | -34.50176 | -58.90797 | 9803 ft | 290 kts | 123° |
| 2026-05-04 00:27 | -34.51247 | -58.88740 | 9501 ft | 288 kts | 123° |
| 2026-05-04 00:27 | -34.52308 | -58.86698 | 9221 ft | 286 kts | 123° |
| 2026-05-04 00:27 | -34.53379 | -58.84640 | 8950 ft | 292 kts | 123° |
| 2026-05-04 00:28 | -34.54466 | -58.82548 | 8669 ft | 295 kts | 123° |
| 2026-05-04 00:28 | -34.55559 | -58.80443 | 8390 ft | 296 kts | 123° |
| 2026-05-04 00:28 | -34.56535 | -58.78252 | 8077 ft | 296 kts | 110° |
| 2026-05-04 00:28 | -34.57183 | -58.75890 | 7782 ft | 295 kts | 108° |
| 2026-05-04 00:29 | -34.57818 | -58.73545 | 7504 ft | 293 kts | 108° |
| 2026-05-04 00:29 | -34.58456 | -58.71214 | 7226 ft | 290 kts | 108° |
| 2026-05-04 00:29 | -34.59092 | -58.68904 | 6954 ft | 288 kts | 108° |
| 2026-05-04 00:29 | -34.59725 | -58.66605 | 6679 ft | 286 kts | 108° |
| 2026-05-04 00:30 | -34.60353 | -58.64326 | 6400 ft | 285 kts | 108° |
| 2026-05-04 00:30 | -34.60978 | -58.62062 | 6118 ft | 282 kts | 108° |
| 2026-05-04 00:30 | -34.61581 | -58.59813 | 5894 ft | 279 kts | 107° |
| 2026-05-04 00:30 | -34.62176 | -58.57582 | 5669 ft | 279 kts | 107° |
| 2026-05-04 00:31 | -34.62772 | -58.55347 | 5478 ft | 279 kts | 107° |
| 2026-05-04 00:31 | -34.63367 | -58.53118 | 5275 ft | 276 kts | 107° |
| 2026-05-04 00:31 | -34.63951 | -58.50924 | 5072 ft | 271 kts | 107° |
| 2026-05-04 00:31 | -34.64525 | -58.48769 | 4874 ft | 267 kts | 106° |
| 2026-05-04 00:32 | -34.65090 | -58.46648 | 4690 ft | 262 kts | 106° |
| 2026-05-04 00:32 | -34.65643 | -58.44569 | 4488 ft | 257 kts | 106° |
| 2026-05-04 00:32 | -34.66187 | -58.42521 | 4291 ft | 252 kts | 105° |
| 2026-05-04 00:32 | -34.66720 | -58.40515 | 4080 ft | 248 kts | 105° |
| 2026-05-04 00:33 | -34.67243 | -58.38546 | 3878 ft | 243 kts | 105° |
| 2026-05-04 00:33 | -34.68258 | -58.34721 | 3511 ft | 233 kts | 104° |
| 2026-05-04 00:33 | -34.68743 | -58.32892 | 3369 ft | 222 kts | 104° |
| 2026-05-04 00:34 | -34.69203 | -58.31150 | 3186 ft | 213 kts | 103° |
| 2026-05-04 00:34 | -34.69645 | -58.29483 | 3034 ft | 201 kts | 103° |
| 2026-05-04 00:34 | -34.69785 | -58.27887 | 2874 ft | 183 kts | 74° |
| 2026-05-04 00:34 | -34.69381 | -58.26519 | 2743 ft | 165 kts | 50° |
| 2026-05-04 00:35 | -34.68670 | -58.25546 | 2639 ft | 145 kts | 31° |
| 2026-05-04 00:35 | -34.67836 | -58.24926 | 2580 ft | 139 kts | 21° |
| 2026-05-04 00:35 | -34.66961 | -58.24534 | 2515 ft | 130 kts | 1° |
| 2026-05-04 00:35 | -34.66092 | -58.24706 | 2416 ft | 128 kts | 339° |
| 2026-05-04 00:36 | -34.65357 | -58.25311 | 2326 ft | 129 kts | 323° |
| 2026-05-04 00:36 | -34.64718 | -58.26084 | 2236 ft | 130 kts | 317° |
| 2026-05-04 00:36 | -34.64139 | -58.26930 | 2139 ft | 131 kts | 314° |
| 2026-05-04 00:36 | -34.63586 | -58.27832 | 2057 ft | 137 kts | 312° |
| 2026-05-04 00:37 | -34.63032 | -58.28794 | 1973 ft | 140 kts | 311° |
| 2026-05-04 00:37 | -34.62482 | -58.29776 | 1884 ft | 142 kts | 310° |
| 2026-05-04 00:37 | -34.61931 | -58.30767 | 1797 ft | 142 kts | 310° |
| 2026-05-04 00:37 | -34.61378 | -58.31764 | 1724 ft | 142 kts | 310° |
| 2026-05-04 00:38 | -34.60826 | -58.32758 | 1569 ft | 142 kts | 311° |
| 2026-05-04 00:38 | -34.60276 | -58.33754 | 1406 ft | 141 kts | 310° |
| 2026-05-04 00:38 | -34.59733 | -58.34729 | 1224 ft | 140 kts | 309° |
| 2026-05-04 00:38 | -34.59184 | -58.35720 | 1049 ft | 142 kts | 309° |
| 2026-05-04 00:39 | -34.58634 | -58.36713 | 857 ft | 142 kts | 310° |
| 2026-05-04 00:39 | -34.58077 | -58.37704 | 658 ft | 142 kts | 308° |
| 2026-05-04 00:39 | -34.57536 | -58.38704 | 435 ft | 142 kts | 308° |
| 2026-05-04 00:39 | -34.56976 | -58.39701 | 251 ft | 144 kts | 306° |
| 2026-05-04 00:40 | -34.56425 | -58.40694 | 44 ft | 138 kts | 306° |
| 2026-05-04 00:40 | -34.55964 | -58.41501 | 27 ft | 83 kts | 306° |
| 2026-05-04 00:40 | -34.55758 | -58.41874 | 27 ft | 24 kts | 304° |
| 2026-05-04 00:40 | -34.55685 | -58.41902 | 28 ft | 13 kts | 29° |
| 2026-05-04 00:41 | -34.55691 | -58.41835 | 28 ft | 9 kts | 130° |
| 2026-05-04 00:41 | -34.55735 | -58.41755 | 28 ft | 14 kts | 118° |
| 2026-05-04 00:41 | -34.55785 | -58.41638 | 28 ft | 15 kts | 116° |
| 2026-05-04 00:41 | -34.55836 | -58.41515 | 28 ft | 19 kts | 116° |
| 2026-05-04 00:42 | -34.55900 | -58.41361 | 28 ft | 19 kts | 117° |
| 2026-05-04 00:42 | -34.55853 | -58.41285 | 28 ft | 14 kts | 357° |
| 2026-05-04 00:42 | -34.55796 | -58.41359 | 28 ft | 11 kts | 306° |
| 2026-05-04 00:42 | -34.55759 | -58.41429 | 28 ft | 11 kts | 302° |
| 2026-05-04 00:43 | -34.55725 | -58.41456 | 28 ft | 5 kts | 9° |
| 2026-05-04 00:43 | -34.55707 | -58.41448 | 28 ft | 1 kts | 20° |
| 2026-05-04 00:43 | -34.55701 | -58.41446 | 28 ft | 0 kts | 19° |